Terminal Aerodrome Forecast
Issued by NWS Dodge City, KS

Home | Current Version | Previous Version | Graphics & Text | Print | Product List | Glossary Off
Versions: 1 2 3 4 5 6 7 8 9 10 11 12 13 14 15 16 17 18 19 20 21 22 23 24 25 26 27 28 29 30 31 32 33 34 35 36 37 38 39 40 41 42 43 44 45 46 47

000
FTUS43 KDDC 262028 AAB
TAFDDC
TAF AMD
KDDC 262028Z 2620/2718 06015G23KT P6SM OVC006
     FM270900 06020G27KT 5SM -SHRA BR OVC015
     FM271700 06022G28KT P6SM SCT080=

USA.gov is the U.S. government's official web portal to all federal, state and local government web resources and services.